Latest Weather Observations for Willis Island

IDQ60801

Issued at 11:02 pm EST Saturday 30 July 2016 (issued every 30 minutes, with the page automatically refreshed every 10 minutes)

About weather observations | Map of weather stations | Latest weather observations for QLD | Other Formats
Station Details ID: 200283 Name: WILLIS ISLAND Lat: -16.29 Lon: 149.97 Height: 9.29 m
Data from the previous 72 hours. | See also: Recent months at Willis Island
Date/Time
EST
Temp
°C
App
Temp
°C
Dew
Point
°C
Rel
Hum
%
Delta-T
°C
Wind Press
QNH
hPa
Press
MSL
hPa
Rain since
9am
mm
Dir  Spd
km/h
Gust
km/h
Spd
kts
Gust
kts
30/11:00pm 24.7 20.8 21.2 81 2.3 SE 43 52 23 28 1014.6 1014.5 0.8
30/10:30pm 25.1 21.8 21.5 80 2.4 SE 41 46 22 25 1014.6 1014.5 0.8
30/10:00pm 25.0 21.5 21.2 79 2.5 SE 41 48 22 26 1014.7 1014.6 0.8
30/09:30pm 24.8 20.9 21.2 80 2.4 SE 43 50 23 27 1014.9 1014.8 0.8
30/09:00pm 24.9 21.6 21.6 82 2.2 SE 41 46 22 25 1014.7 1014.6 0.8
30/08:30pm 24.8 21.5 21.6 82 2.1 SE 41 48 22 26 1014.8 1014.7 0.8
30/08:00pm 24.9 21.5 21.4 81 2.3 SE 41 50 22 27 1014.5 1014.4 0.8
30/07:30pm 25.0 22.2 21.8 82 2.1 SE 39 46 21 25 1014.4 1014.3 0.8
30/07:00pm 24.9 21.0 21.1 79 2.5 SE 43 46 23 25 1014.0 1013.9 0.8
30/06:30pm 24.9 21.1 21.4 81 2.3 ESE 43 48 23 26 1013.6 1013.5 0.8
30/06:00pm 24.4 20.9 21.2 82 2.1 ESE 41 52 22 28 1013.5 1013.4 0.6
30/05:30pm 24.5 22.4 22.4 88 1.4 ESE 37 46 20 25 1013.0 1012.9 0.6
30/05:00pm 25.2 21.8 21.3 79 2.6 SE 41 48 22 26 1012.9 1012.8 0.6
30/04:30pm 25.8 22.5 21.6 77 2.8 SE 41 48 22 26 1012.9 1012.8 0.6
30/04:00pm 25.8 22.0 21.4 76 2.9 SE 43 50 23 27 1012.7 1012.6 0.6
30/03:30pm 25.5 23.0 21.7 79 2.5 SE 37 46 20 25 1012.6 1012.5 0.6
30/03:00pm 25.5 22.6 21.6 79 2.6 SE 39 46 21 25 1012.6 1012.5 0.6
30/02:30pm 26.3 23.4 21.5 75 3.2 SE 39 44 21 24 1012.7 1012.6 0.6
30/02:00pm 26.7 24.3 21.9 75 3.2 SE 37 44 20 24 1012.9 1012.8 0.6
30/01:30pm 26.3 23.1 21.8 76 3.0 SE 41 46 22 25 1013.1 1013.0 0.6
30/01:00pm 26.5 24.7 22.2 77 2.9 SE 35 41 19 22 1013.4 1013.3 0.6
30/12:30pm 26.5 23.3 21.7 75 3.2 SE 41 46 22 25 1013.7 1013.6 0.6
30/12:00pm 26.0 23.2 21.8 77 2.8 SE 39 46 21 25 1014.0 1013.9 0.6
30/11:30am 25.6 22.4 21.8 79 2.5 SE 41 46 22 25 1014.4 1014.3 0.6
30/11:00am 25.9 23.5 22.5 81 2.3 SE 39 44 21 24 1014.8 1014.7 0.6
30/10:30am 24.6 22.0 22.2 86 1.6 SE 39 43 21 23 1015.1 1015.0 0.6
30/10:00am 24.6 22.4 22.2 86 1.6 SE 37 44 20 24 1015.3 1015.2 0.2
30/09:30am 26.0 23.3 21.3 75 3.1 ESE 37 44 20 24 1015.2 1015.1 0.0
30/09:00am 26.0 23.3 21.3 75 3.1 SE 37 43 20 23 1015.1 1015.0 1.4
30/08:30am 26.0 23.8 22.1 79 2.6 SE 37 44 20 24 1014.8 1014.7 1.4
30/08:00am 25.4 22.5 21.5 79 2.6 SE 39 46 21 25 1014.5 1014.4 1.4
30/07:30am 25.3 22.5 21.7 80 2.4 SE 39 46 21 25 1014.2 1014.1 1.4
30/07:00am 24.7 22.1 21.5 82 2.1 SE 37 43 20 23 1013.9 1013.8 1.4
30/06:30am 24.9 22.4 21.7 82 2.1 SE 37 43 20 23 1013.7 1013.6 1.4
30/06:00am 24.6 21.6 21.3 82 2.2 SE 39 46 21 25 1013.5 1013.4 1.4
30/05:30am 24.6 21.7 20.9 80 2.4 SE 37 44 20 24 1013.4 1013.3 1.4
30/05:00am 24.8 22.2 21.5 82 2.2 SE 37 43 20 23 1013.1 1013.0 1.4
30/04:30am 24.6 21.7 20.9 80 2.4 SE 37 44 20 24 1013.1 1013.0 1.4
30/04:00am 24.5 21.8 21.3 82 2.1 SE 37 43 20 23 1013.0 1012.9 1.4
30/03:30am 24.4 20.5 21.2 82 2.1 SE 43 48 23 26 1012.9 1012.8 1.4
30/03:00am 24.2 21.3 21.6 85 1.7 SE 39 46 21 25 1013.2 1013.1 1.4
30/02:30am 23.2 19.3 21.5 90 1.1 ESE 44 50 24 27 1013.5 1013.4 1.0
30/02:00am 24.5 20.8 21.5 83 2.0 SE 43 48 23 26 1013.5 1013.4 0.6
30/01:30am 24.8 21.5 21.5 82 2.2 SE 41 46 22 25 1013.8 1013.7 0.6
30/01:00am 24.6 21.4 21.7 84 1.9 SE 41 48 22 26 1014.1 1014.0 0.6
30/12:30am 25.0 22.3 22.0 83 2.0 SE 39 46 21 25 1014.5 1014.4 0.6
30/12:00am 24.8 22.2 21.5 82 2.2 SE 37 43 20 23 1014.7 1014.6 0.6
 
Date/Time
EST
Temp
°C
App
Temp
°C
Dew
Point
°C
Rel
Hum
%
Delta-T
°C
Wind Press
QNH
hPa
Press
MSL
hPa
Rain since
9am
mm
Dir  Spd
km/h
Gust
km/h
Spd
kts
Gust
kts
29/11:30pm 24.7 22.5 22.2 86 1.7 SE 37 44 20 24 1014.8 1014.7 0.6
29/11:00pm 24.4 20.8 21.7 85 1.8 SE 43 50 23 27 1015.0 1014.9 0.6
29/10:30pm 24.6 21.1 21.9 85 1.8 SE 43 54 23 29 1015.2 1015.1 0.6
29/10:00pm 24.7 21.4 22.3 86 1.6 SE 43 50 23 27 1015.3 1015.2 0.6
29/09:30pm 24.4 22.3 21.7 85 1.8 SE 35 41 19 22 1015.4 1015.3 0.6
29/09:00pm 24.6 21.9 21.9 85 1.8 SE 39 46 21 25 1015.3 1015.2 0.6
29/08:30pm 24.6 21.1 21.9 85 1.8 SE 43 50 23 27 1015.3 1015.2 0.6
29/08:00pm 24.9 22.3 22.1 84 1.9 SE 39 44 21 24 1015.0 1014.9 0.4
29/07:30pm 24.8 22.1 21.9 84 1.9 SE 39 46 21 25 1014.7 1014.6 0.4
29/07:00pm 24.6 21.9 21.9 85 1.8 SE 39 44 21 24 1014.4 1014.3 0.4
29/06:30pm 24.5 21.7 21.8 85 1.8 SE 39 46 21 25 1014.0 1013.9 0.4
29/06:00pm 24.8 22.0 21.8 83 2.0 SE 39 46 21 25 1013.6 1013.5 0.2
29/05:30pm 24.7 22.5 22.2 86 1.7 SE 37 46 20 25 1013.4 1013.3 0.2
29/05:00pm 24.6 22.5 22.4 87 1.5 SE 37 43 20 23 1013.3 1013.2 0.2
29/04:30pm 25.1 22.9 22.1 83 2.0 SE 37 44 20 24 1013.1 1013.0 0.2
29/04:00pm 25.8 23.6 22.2 80 2.4 SE 37 43 20 23 1012.9 1012.8 0.2
29/03:30pm 25.5 23.6 22.7 84 1.9 SE 37 43 20 23 1012.8 1012.7 0.2
29/03:00pm 25.6 24.2 22.2 81 2.3 SE 33 39 18 21 1012.9 1012.8 0.2
29/02:30pm 26.1 24.5 21.9 77 2.8 SE 33 41 18 22 1012.9 1012.8 0.2
29/02:00pm 26.3 24.8 22.0 77 2.9 SE 33 39 18 21 1013.2 1013.1 0.2
29/01:30pm 26.7 25.7 22.7 79 2.7 SE 32 35 17 19 1013.4 1013.3 0.2
29/01:00pm 24.7 22.6 20.9 79 2.5 SE 33 43 18 23 1013.9 1013.8 0.2
29/12:30pm 25.9 23.7 22.2 80 2.5 SE 37 41 20 22 1014.3 1014.2 0.0
29/12:00pm 24.8 22.8 21.9 84 1.9 SE 35 41 19 22 1014.7 1014.6 0.0
29/11:30am 26.3 25.5 22.3 78 2.7 SE 30 35 16 19 1015.1 1015.0 0.0
29/11:00am 26.0 24.7 22.4 80 2.4 SE 33 39 18 21 1015.4 1015.3 0.0
29/10:30am 26.5 23.7 21.0 72 3.6 SE 37 46 20 25 1015.7 1015.6 0.0
29/10:00am 26.8 24.9 22.0 75 3.2 SE 35 41 19 22 1015.8 1015.7 0.0
29/09:30am 26.4 24.4 21.9 76 3.0 SE 35 41 19 22 1015.7 1015.6 0.0
29/09:00am 26.2 24.0 21.5 75 3.1 SE 35 44 19 24 1015.8 1015.7 0.2
29/08:30am 25.8 24.9 22.2 80 2.4 SE 30 41 16 22 1015.8 1015.7 0.0
29/08:00am 25.2 23.5 21.7 81 2.3 SE 33 39 18 21 1015.5 1015.4 0.0
29/07:30am 24.8 22.4 21.9 84 1.9 SE 37 43 20 23 1015.3 1015.2 0.0
29/07:00am 24.5 22.1 21.8 85 1.8 SE 37 44 20 24 1015.1 1015.0 0.0
29/06:30am 24.4 22.3 21.7 85 1.8 SE 35 44 19 24 1014.8 1014.7 0.0
29/06:00am 24.6 21.6 21.4 82 2.1 SE 39 44 21 24 1014.5 1014.4 0.0
29/05:30am 24.5 21.9 21.5 83 2.0 SE 37 44 20 24 1014.3 1014.2 0.0
29/05:00am 24.8 21.9 21.6 82 2.1 SE 39 44 21 24 1014.1 1014.0 0.0
29/04:30am 24.9 21.7 21.1 79 2.5 SE 39 46 21 25 1013.9 1013.8 0.0
29/04:00am 24.7 21.7 21.4 82 2.2 SE 39 48 21 26 1014.1 1014.0 0.0
29/03:30am 24.7 21.9 21.7 83 2.0 SE 39 44 21 24 1014.0 1013.9 0.0
29/03:00am 24.6 21.8 21.7 84 1.9 SE 39 44 21 24 1014.1 1014.0 0.0
29/02:30am 24.7 21.3 21.4 82 2.2 SE 41 46 22 25 1014.3 1014.2 0.0
29/02:00am 24.4 21.8 21.5 84 1.9 SE 37 44 20 24 1014.5 1014.4 0.0
29/01:30am 24.5 21.1 21.3 82 2.1 SE 41 48 22 26 1014.8 1014.7 0.0
29/01:00am 24.5 20.7 21.3 82 2.1 SE 43 50 23 27 1015.2 1015.1 0.0
29/12:30am 24.6 21.2 21.3 82 2.2 SE 41 46 22 25 1015.6 1015.5 0.0
29/12:00am 24.5 20.7 21.3 82 2.1 SE 43 50 23 27 1015.6 1015.5 0.0
 
Date/Time
EST
Temp
°C
App
Temp
°C
Dew
Point
°C
Rel
Hum
%
Delta-T
°C
Wind Press
QNH
hPa
Press
MSL
hPa
Rain since
9am
mm
Dir  Spd
km/h
Gust
km/h
Spd
kts
Gust
kts
28/11:30pm 24.7 20.8 21.2 81 2.3 SE 43 50 23 27 1015.7 1015.6 0.0
28/11:00pm 24.6 20.5 20.8 79 2.5 SE 43 50 23 27 1016.0 1015.9 0.0
28/10:30pm 24.7 20.8 21.2 81 2.3 SE 43 50 23 27 1016.1 1016.0 0.0
28/10:00pm 24.5 20.5 21.0 81 2.3 SE 43 50 23 27 1016.4 1016.3 0.0
28/09:30pm 23.9 20.0 21.5 86 1.6 SE 44 50 24 27 1016.6 1016.5 0.0
28/09:00pm 24.5 20.7 21.3 82 2.1 SE 43 50 23 27 1016.6 1016.5 0.0
28/08:30pm 24.3 20.0 21.4 84 1.9 SE 46 54 25 29 1016.8 1016.7 0.0
28/08:00pm 24.5 20.7 21.3 82 2.1 SE 43 50 23 27 1016.7 1016.6 0.0
28/07:30pm 24.5 20.5 21.2 82 2.2 SSE 44 52 24 28 1016.4 1016.3 0.0
28/07:00pm 24.5 20.7 21.3 82 2.1 SE 43 50 23 27 1016.2 1016.1 0.0
28/06:30pm 24.3 20.1 20.9 81 2.2 SE 44 54 24 29 1015.8 1015.7 0.0
28/06:00pm 24.8 19.9 21.0 79 2.5 SE 48 57 26 31 1015.6 1015.5 0.0
28/05:30pm 24.7 20.1 20.9 79 2.5 SE 46 54 25 29 1015.2 1015.1 0.0
28/05:00pm 24.8 20.0 20.5 77 2.8 SE 46 54 25 29 1014.9 1014.8 0.0
28/04:30pm 24.8 19.5 20.2 75 3.0 SE 48 56 26 30 1014.5 1014.4 0.0
28/04:00pm 24.8 19.5 20.2 75 3.0 SSE 48 56 26 30 1014.2 1014.1 0.0
28/03:30pm 25.0 20.0 20.1 74 3.2 SSE 46 56 25 30 1013.7 1013.6 0.0
28/03:00pm 25.0 19.7 20.2 74 3.1 SE 48 56 26 30 1013.9 1013.8 0.0
28/02:30pm 24.7 20.3 20.2 76 2.9 SE 43 50 23 27 1014.0 1013.9 0.0
28/02:00pm 24.8 20.5 20.3 76 2.9 SE 43 52 23 28 1014.3 1014.2 0.0
28/01:30pm 25.1 20.9 21.0 78 2.7 SE 44 52 24 28 1014.8 1014.7 0.0
28/01:00pm 25.0 20.8 21.0 78 2.6 SE 44 56 24 30 1015.2 1015.1 0.0
28/12:30pm 25.1 20.6 21.0 78 2.7 SE 46 56 25 30 1015.4 1015.3 0.0
28/12:00pm 24.7 20.3 21.2 81 2.3 SE 46 52 25 28 1015.8 1015.7 0.0
28/11:30am 23.9 19.1 21.3 85 1.7 SE 48 56 26 30 1016.3 1016.2 0.0
28/11:00am 23.7 18.9 21.9 90 1.2 SE 50 59 27 32 1016.6 1016.5 0.0
28/10:30am 24.1 20.7 22.0 88 1.4 SE 43 50 23 27 1016.8 1016.7 0.0
28/10:00am 24.1 21.6 22.3 90 1.2 SSE 39 48 21 26 1017.1 1017.0 0.0
28/09:30am 24.4 21.6 21.8 85 1.7 SE 39 44 21 24 1017.3 1017.2 0.0
28/09:00am 24.1 21.3 21.7 86 1.6 SE 39 44 21 24 1017.3 1017.2 4.8
28/08:30am 23.7 21.1 21.4 87 1.5 SE 37 41 20 22 1017.2 1017.1 4.8
28/08:00am 23.2 20.4 21.1 88 1.4 SE 37 43 20 23 1017.0 1016.9 4.8
28/07:30am 22.9 20.0 20.9 88 1.3 SE 37 44 20 24 1016.9 1016.8 4.2
28/07:00am 23.5 20.7 21.1 86 1.6 SE 37 43 20 23 1016.7 1016.6 3.8
28/06:30am 23.7 21.6 21.6 88 1.4 SE 35 41 19 22 1016.3 1016.2 3.6
28/06:00am 23.8 20.4 20.7 83 2.0 SE 39 43 21 23 1016.1 1016.0 3.6
28/05:30am 24.2 21.9 21.2 83 2.0 SE 35 41 19 22 1015.8 1015.7 3.6
28/05:00am 23.9 20.6 20.0 79 2.5 SE 37 43 20 23 1015.6 1015.5 3.6
28/04:30am 23.5 21.1 21.8 90 1.1 SSE 37 44 20 24 1015.5 1015.4 3.6
28/04:00am 23.6 20.4 21.8 90 1.2 SE 41 46 22 25 1015.6 1015.5 3.6
28/03:30am 23.3 20.9 21.0 87 1.5 SE 35 43 19 23 1015.5 1015.4 3.4
28/03:00am 23.6 21.2 21.8 90 1.2 SE 37 46 20 25 1015.5 1015.4 3.4
28/02:30am 23.7 21.0 21.3 86 1.6 SE 37 43 20 23 1015.5 1015.4 3.2
28/02:00am 23.5 20.1 20.6 84 1.9 ESE 39 43 21 23 1015.6 1015.5 3.2
28/01:30am 23.5 20.3 21.1 86 1.6 ESE 39 43 21 23 1015.7 1015.6 3.2
28/01:00am 23.7 21.6 21.7 88 1.3 ESE 35 39 19 21 1015.7 1015.6 3.2
28/12:30am 23.8 22.5 22.1 90 1.1 ESE 32 35 17 19 1016.2 1016.1 2.6
28/12:00am 23.6 21.2 21.0 85 1.7 ESE 35 41 19 22 1016.1 1016.0 2.4
 
Date/Time
EST
Temp
°C
App
Temp
°C
Dew
Point
°C
Rel
Hum
%
Delta-T
°C
Wind Press
QNH
hPa
Press
MSL
hPa
Rain since
9am
mm
Dir  Spd
km/h
Gust
km/h
Spd
kts
Gust
kts
27/11:30pm 23.8 21.6 21.4 86 1.6 E 35 41 19 22 1016.4 1016.3 2.4

Other Formats:

Comma delimited format used in spreadsheet applications
http://www.bom.gov.au/fwo/IDQ60801/IDQ60801.94299.axf

JavaScript Object Notation format (JSON) in row-major order
http://www.bom.gov.au/fwo/IDQ60801/IDQ60801.94299.json